Clifford Maersk — OYRO2 — position and weather

sailwx.info

Track history (hours):
 
Tides and Currents Weather Stations Pressure Air Temp Water Temp Dewpoint Dewpoint Depression Visibility Wind Speed Wind Dir Waves Ship Positions

Clifford Maersk

Last reported at 2016-Mar-29 02:26 UTC. Time now 2016-May-03 08:41 UTC.
Position N 08°15' W 079°27'.
Warning: this ship's position is 35 days out of date.

Type: Ship (hazmat cat D). MMSI: 219840000.

Date/timePositionNaut miles runAvg speedWind from/ knotsBaromVisibWave heightAir tempDewpointWater temp
2016-Mar-29 02:26N 08°15' W 079°27'1012.0
2016-Mar-29 01:34N 08°25' W 079°27'1211.8
2016-Mar-29 00:34N 08°37' W 079°28'22 3.5
2016-Mar-28 18:23N 08°58' W 079°34'0 0.0
2016-Mar-28 17:32N 08°58' W 079°34'  
2016-Mar-19 08:25N 29°06' W 120°43'1517.5
2016-Mar-19 07:33N 29°15' W 120°57'1817.3
2016-Mar-19 06:32N 29°25' W 121°13'2217.5
2016-Mar-19 05:17N 29°38' W 121°34'1317.5
2016-Mar-19 04:33N 29°45' W 121°46'2117.6
2016-Mar-19 03:21N 29°56' W 122°06'  
Track history (hours):
 
Tides and Currents Weather Stations Pressure Air Temp Water Temp Dewpoint Dewpoint Depression Visibility Wind Speed Wind Dir Waves Ship Positions

Clifford Maersk

Last reported at 2016-Mar-29 02:26 UTC. Time now 2016-May-03 08:41 UTC.
Position N 08°15' W 079°27'.
Warning: this ship's position is 35 days out of date.

Type: Ship (hazmat cat D). MMSI: 219840000.

Date/timePositionNaut miles runAvg speedWind from/ knotsBaromVisibWave heightAir tempDewpointWater temp
2016-Mar-29 02:26N 08°15' W 079°27'1012.0
2016-Mar-29 01:34N 08°25' W 079°27'1211.8
2016-Mar-29 00:34N 08°37' W 079°28'22 3.5
2016-Mar-28 18:23N 08°58' W 079°34'0 0.0
2016-Mar-28 17:32N 08°58' W 079°34'  
2016-Mar-19 08:25N 29°06' W 120°43'1517.5
2016-Mar-19 07:33N 29°15' W 120°57'1817.3
2016-Mar-19 06:32N 29°25' W 121°13'2217.5
2016-Mar-19 05:17N 29°38' W 121°34'1317.5
2016-Mar-19 04:33N 29°45' W 121°46'2117.6
2016-Mar-19 03:21N 29°56' W 122°06'  

Dump ship's entire track history